Cartaya, Spain
Current Conditions -  °F | °C
As of 3:00 PM on Monday 20 Oct 2014 (Local Time) from LPFR Reporting Station
Clear Clear  
Wind Chill: 84°   Ceiling: Unl
Heat Index: 84°   Visibility: 6mi
Dew Point: 52°   Wind: 12mph
Humidity: 33%   Direction: 90°E
Pressure: 30.03"   Gusts: NA
Location:  37.28°N, 7.15°W
Report Text: LPFR 201300Z 09010KT CAVOK 29/11 Q1017
Loading
Personal Weather Stations






























Interactive Weather Map
Tropical Storm Tracking
New forecast layout! Learn more

10-Day Weather Forecast

Advertisements
Track Severe Weather on mobile